Time;durP1;ratioP1;P1;durP2;ratioP2;P2;SDS_P1;SDS_P2;PMS_P1;PMS_P2;Temp;Humidity;BMP_temperature;BMP_pressure;BME280_temperature;BME280_humidity;BME280_pressure;Samples;Min_cycle;Max_cycle;Signal;HPM_P1;HPM_P2
2022/05/29 00:00:20;;;;;;;;;;;;;;;9.52;63.06;100379.31;5112502;28;19924;-51
2022/05/29 00:02:48;;;;;;;;;;;;;;;9.47;63.33;100382.22;5112775;28;19931;-53
2022/05/29 00:05:15;;;;;;;;;;;;;;;9.43;63.05;100374.78;5110836;28;20275;-53
2022/05/29 00:07:45;;;;;;;;;;;;;;;9.41;63.46;100371.50;5132800;28;20283;-51
2022/05/29 00:10:12;;;;;;;;;;;;;;;9.32;63.63;100380.56;5133349;28;19924;-52
2022/05/29 00:12:39;;;;;;;;;;;;;;;9.36;63.17;100377.97;5115409;28;19931;-53
2022/05/29 00:15:08;;;;;;;;;;;;;;;9.33;63.67;100385.00;5130979;28;19942;-51
2022/05/29 00:17:37;;;;;;;;;;;;;;;9.30;63.97;100373.66;5134886;27;19924;-52
2022/05/29 00:20:05;;;;;;;;;;;;;;;9.30;63.55;100374.50;5136959;27;19924;-52
2022/05/29 00:22:33;;;;;;;;;;;;;;;9.19;64.62;100375.00;5133406;27;19930;-53
2022/05/29 00:25:02;;;;;;;;;;;;;;;9.22;64.08;100379.94;5136847;27;19930;-52
2022/05/29 00:27:29;;;;;;;;;;;;;;;9.11;65.18;100373.75;5136735;27;19923;-54
2022/05/29 00:29:56;;;;;;;;;;;;;;;9.08;64.96;100374.38;5136609;27;19931;-52
2022/05/29 00:32:23;;;;;;;;;;;;;;;9.05;64.60;100364.69;5134044;27;19934;-52
2022/05/29 00:34:50;;;;;;;;;;;;;;;9.10;64.54;100370.16;5136636;27;19924;-52
2022/05/29 00:37:17;;;;;;;;;;;;;;;9.05;64.75;100364.69;5136375;27;19935;-54
2022/05/29 00:39:50;;;;;;;;;;;;;;;9.01;64.63;100358.09;5136403;27;19930;-52
2022/05/29 00:42:24;;;;;;;;;;;;;;;9.00;64.46;100358.41;5134263;27;19923;-51
2022/05/29 00:44:51;;;;;;;;;;;;;;;8.91;65.28;100356.34;5133679;27;19930;-51
2022/05/29 00:47:19;;;;;;;;;;;;;;;8.89;64.79;100361.38;5115057;28;19923;-54
2022/05/29 00:49:48;;;;;;;;;;;;;;;8.86;65.13;100355.59;5115277;28;19928;-53
2022/05/29 00:52:16;;;;;;;;;;;;;;;8.81;65.54;100356.50;5115464;28;19924;-52
2022/05/29 00:54:45;;;;;;;;;;;;;;;8.78;66.12;100354.38;5115508;28;19931;-52
2022/05/29 00:57:16;;;;;;;;;;;;;;;8.75;65.34;100352.19;5133634;27;19931;-52
2022/05/29 00:59:45;;;;;;;;;;;;;;;8.73;66.04;100348.88;5136041;27;19923;-54
2022/05/29 01:02:12;;;;;;;;;;;;;;;8.71;65.59;100346.44;5135995;27;19924;-52
2022/05/29 01:04:42;;;;;;;;;;;;;;;8.73;65.83;100351.66;5136157;27;19924;-51
2022/05/29 01:07:11;;;;;;;;;;;;;;;8.70;65.62;100346.72;5133727;27;19923;-52
2022/05/29 01:09:40;;;;;;;;;;;;;;;8.68;65.69;100337.88;5135427;27;19923;-51
2022/05/29 01:12:12;;;;;;;;;;;;;;;8.60;66.76;100341.34;5122920;27;19939;-51
2022/05/29 01:14:45;;;;;;;;;;;;;;;8.53;66.02;100328.69;5135729;27;19930;-53
2022/05/29 01:17:19;;;;;;;;;;;;;;;8.53;66.08;100337.03;5131119;27;20303;-53
2022/05/29 01:20:04;;;;;;;;;;;;;;;8.50;65.76;100336.78;5135274;27;20277;-54
2022/05/29 01:22:42;;;;;;;;;;;;;;;8.47;67.39;100329.91;5132514;27;19923;-51
2022/05/29 01:25:31;;;;;;;;;;;;;;;8.50;66.76;100326.53;5135759;27;19923;-52
2022/05/29 01:28:10;;;;;;;;;;;;;;;8.47;67.36;100327.13;5135344;27;20268;-54
2022/05/29 01:30:40;;;;;;;;;;;;;;;8.49;66.53;100330.44;5135254;27;19927;-53
2022/05/29 01:33:13;;;;;;;;;;;;;;;8.47;67.05;100327.13;5133415;27;19927;-52
2022/05/29 01:35:46;;;;;;;;;;;;;;;8.54;66.28;100316.44;5135328;27;20356;-52
2022/05/29 01:38:16;;;;;;;;;;;;;;;8.51;66.80;100325.41;5134954;27;20307;-53
2022/05/29 01:40:44;;;;;;;;;;;;;;;8.49;66.73;100319.31;5135271;27;19923;-54
2022/05/29 01:43:25;;;;;;;;;;;;;;;8.44;66.67;100316.66;5129881;27;19984;-53
2022/05/29 01:45:56;;;;;;;;;;;;;;;8.44;66.75;100311.09;5131928;27;19923;-52
2022/05/29 01:48:35;;;;;;;;;;;;;;;8.44;66.75;100316.66;5135106;27;19924;-52
2022/05/29 01:51:05;;;;;;;;;;;;;;;8.45;66.71;100306.38;5134912;27;20409;-54
2022/05/29 01:53:38;;;;;;;;;;;;;;;8.41;66.72;100310.88;5134546;27;19924;-52
2022/05/29 01:56:08;;;;;;;;;;;;;;;8.38;66.63;100312.28;5132880;27;19946;-52
2022/05/29 01:58:40;;;;;;;;;;;;;;;8.37;67.16;100307.84;5134877;27;19932;-52
2022/05/29 02:01:09;;;;;;;;;;;;;;;8.42;67.00;100309.72;5134649;27;19927;-52
2022/05/29 02:03:39;;;;;;;;;;;;;;;8.44;68.00;100307.47;5134662;27;19924;-52
2022/05/29 02:06:09;;;;;;;;;;;;;;;8.53;66.81;100309.25;5132929;27;20291;-54
2022/05/29 02:08:38;;;;;;;;;;;;;;;8.64;66.72;100301.56;5134677;27;20299;-53
2022/05/29 02:11:07;;;;;;;;;;;;;;;8.74;66.63;100303.34;5130687;27;19924;-54
2022/05/29 02:13:38;;;;;;;;;;;;;;;8.77;66.56;100302.72;5126069;27;19923;-52
2022/05/29 02:16:08;;;;;;;;;;;;;;;8.81;66.55;100298.19;5134321;27;19931;-52
2022/05/29 02:18:39;;;;;;;;;;;;;;;8.88;66.03;100300.56;5134170;27;19950;-52
2022/05/29 02:21:09;;;;;;;;;;;;;;;8.91;66.60;100292.44;5134334;27;19923;-53
2022/05/29 02:23:39;;;;;;;;;;;;;;;8.87;66.14;100296.16;5132627;27;19930;-51
2022/05/29 02:26:08;;;;;;;;;;;;;;;8.89;66.04;100288.34;5134269;27;19931;-52
2022/05/29 02:28:37;;;;;;;;;;;;;;;8.89;67.11;100293.91;5133869;27;19931;-52
2022/05/29 02:31:10;;;;;;;;;;;;;;;8.94;66.99;100291.84;5134651;27;20383;-53
2022/05/29 02:33:42;;;;;;;;;;;;;;;9.00;66.35;100288.97;5129349;27;19931;-52
2022/05/29 02:36:23;;;;;;;;;;;;;;;9.01;66.81;100283.09;5134352;27;19923;-52
2022/05/29 02:39:09;;;;;;;;;;;;;;;9.07;67.09;100283.78;5133943;27;19946;-54
2022/05/29 02:41:46;;;;;;;;;;;;;;;9.06;66.97;100280.19;5132072;27;19931;-52
2022/05/29 02:44:18;;;;;;;;;;;;;;;9.09;66.69;100276.81;5134066;27;20282;-54
2022/05/29 02:46:51;;;;;;;;;;;;;;;9.10;66.78;100272.91;5134077;27;19930;-53
2022/05/29 02:49:21;;;;;;;;;;;;;;;8.99;67.12;100273.41;5134342;27;19924;-54
2022/05/29 02:51:53;;;;;;;;;;;;;;;9.06;66.75;100273.84;5131911;27;19954;-52
2022/05/29 02:54:25;;;;;;;;;;;;;;;9.07;66.92;100272.69;5133775;27;19930;-52
2022/05/29 02:56:53;;;;;;;;;;;;;;;9.08;66.95;100263.22;5133528;27;20280;-54
2022/05/29 02:59:21;;;;;;;;;;;;;;;9.13;66.78;100265.88;5133658;27;19923;-51
2022/05/29 03:01:53;;;;;;;;;;;;;;;9.19;66.38;100264.66;5131458;27;20387;-52
2022/05/29 03:04:28;;;;;;;;;;;;;;;9.22;66.53;100264.06;5133983;28;20291;-51
2022/05/29 03:07:01;;;;;;;;;;;;;;;9.24;66.44;100259.00;5133308;28;19923;-52
2022/05/29 03:09:39;;;;;;;;;;;;;;;9.25;67.12;100266.19;5133494;28;19923;-54
2022/05/29 03:12:12;;;;;;;;;;;;;;;9.37;67.09;100262.06;5124125;28;20371;-52
2022/05/29 03:14:43;;;;;;;;;;;;;;;9.49;67.13;100262.34;5133612;28;19927;-53
2022/05/29 03:17:15;;;;;;;;;;;;;;;9.56;66.93;100257.19;5133683;28;19924;-52
2022/05/29 03:19:49;;;;;;;;;;;;;;;9.52;65.83;100262.53;5133324;28;19923;-53
2022/05/29 03:22:22;;;;;;;;;;;;;;;9.70;65.67;100248.78;5131498;28;20303;-51
2022/05/29 03:24:52;;;;;;;;;;;;;;;9.75;65.50;100259.81;5133465;28;19934;-51
2022/05/29 03:27:22;;;;;;;;;;;;;;;9.78;65.41;100248.03;5133338;28;20383;-54
2022/05/29 03:29:52;;;;;;;;;;;;;;;9.68;65.56;100257.47;5133357;28;20363;-54
2022/05/29 03:32:21;;;;;;;;;;;;;;;9.75;65.63;100246.72;5131680;28;19950;-52
2022/05/29 03:34:48;;;;;;;;;;;;;;;9.87;65.57;100246.16;5133194;28;19923;-52
2022/05/29 03:37:15;;;;;;;;;;;;;;;9.91;64.90;100246.34;5133680;28;19930;-52
2022/05/29 03:39:42;;;;;;;;;;;;;;;9.95;64.81;100252.91;5133544;28;20398;-52
2022/05/29 03:42:09;;;;;;;;;;;;;;;9.68;66.13;100254.69;5130232;28;19927;-52
2022/05/29 03:44:36;;;;;;;;;;;;;;;9.88;65.57;100255.34;5133483;28;19923;-51
2022/05/29 03:47:03;;;;;;;;;;;;;;;9.96;65.67;100251.78;5133317;28;19923;-51
2022/05/29 03:49:32;;;;;;;;;;;;;;;10.05;65.62;100251.84;5133165;28;19930;-51
2022/05/29 03:51:59;;;;;;;;;;;;;;;10.20;65.34;100247.88;5132276;27;19943;-52
2022/05/29 03:54:26;;;;;;;;;;;;;;;10.27;65.63;100248.25;5116242;28;20412;-51
2022/05/29 03:56:56;;;;;;;;;;;;;;;10.41;65.04;100240.66;5116056;28;19928;-54
2022/05/29 03:59:22;;;;;;;;;;;;;;;10.42;65.12;100239.53;5115657;28;19931;-52
2022/05/29 04:01:49;;;;;;;;;;;;;;;10.59;64.90;100237.97;5113307;28;19935;-53
2022/05/29 04:04:19;;;;;;;;;;;;;;;10.64;64.33;100235.84;5116376;28;19947;-54
2022/05/29 04:06:48;;;;;;;;;;;;;;;10.71;63.74;100235.41;5115927;28;19931;-53
2022/05/29 04:12:05;;;;;;;;;;;;;;;10.86;63.35;100234.97;5117066;28;19935;-53
2022/05/29 04:14:32;;;;;;;;;;;;;;;10.88;63.27;100241.03;5116272;28;20303;-53
2022/05/29 04:16:59;;;;;;;;;;;;;;;10.89;62.60;100231.53;5115988;28;19928;-52
2022/05/29 04:19:26;;;;;;;;;;;;;;;10.79;63.01;100231.81;5116215;28;20287;-53
2022/05/29 04:21:55;;;;;;;;;;;;;;;10.85;62.94;100232.50;5113313;28;19924;-53
2022/05/29 04:24:22;;;;;;;;;;;;;;;10.74;63.01;100229.19;5116232;28;19923;-53
2022/05/29 04:26:49;;;;;;;;;;;;;;;10.78;63.11;100219.03;5115979;28;19930;-52
2022/05/29 04:29:16;;;;;;;;;;;;;;;10.81;63.60;100223.97;5116232;28;19924;-53
2022/05/29 04:32:59;;;;;;;;;;;;;;;10.89;63.35;100212.03;5109009;28;19924;-51
2022/05/29 04:34:30;;;;;;;;;;;;;;;11.00;63.08;100217.31;5113994;28;20291;-51
2022/05/29 04:36:58;;;;;;;;;;;;;;;11.06;62.74;100216.81;5115479;28;19924;-51
2022/05/29 04:39:25;;;;;;;;;;;;;;;11.16;62.55;100219.31;5115503;28;19924;-54
2022/05/29 04:41:52;;;;;;;;;;;;;;;11.28;62.41;100215.09;5112870;28;19927;-52
2022/05/29 04:44:19;;;;;;;;;;;;;;;11.12;62.68;100218.31;5115716;28;20379;-54
2022/05/29 04:46:46;;;;;;;;;;;;;;;11.28;62.33;100215.91;5115583;28;19924;-51
2022/05/29 04:49:13;;;;;;;;;;;;;;;11.39;62.60;100210.81;5114454;28;19924;-52
2022/05/29 04:51:40;;;;;;;;;;;;;;;11.49;62.24;100212.50;5094899;28;19935;-52
2022/05/29 04:54:08;;;;;;;;;;;;;;;11.55;62.59;100206.41;5094956;28;19924;-52
2022/05/29 04:56:35;;;;;;;;;;;;;;;11.65;61.90;100207.22;5095256;28;19924;-52
2022/05/29 04:59:02;;;;;;;;;;;;;;;11.65;61.95;100208.03;5094708;28;19961;-53
2022/05/29 05:01:29;;;;;;;;;;;;;;;11.75;62.33;100199.34;5111964;28;19931;-51
2022/05/29 05:03:56;;;;;;;;;;;;;;;11.85;61.61;100197.38;5114653;28;20360;-54
2022/05/29 05:06:23;;;;;;;;;;;;;;;11.94;61.55;100195.41;5115386;28;19924;-52
2022/05/29 05:08:50;;;;;;;;;;;;;;;11.97;61.31;100197.56;5114941;28;19951;-52
2022/05/29 05:11:19;;;;;;;;;;;;;;;12.01;61.02;100198.56;5106376;28;19931;-51
2022/05/29 05:13:46;;;;;;;;;;;;;;;12.24;60.52;100192.72;5094314;28;19924;-51
2022/05/29 05:16:13;;;;;;;;;;;;;;;12.24;60.39;100193.56;5095059;28;19924;-52
2022/05/29 05:18:40;;;;;;;;;;;;;;;12.32;60.37;100192.69;5094424;28;19924;-52
2022/05/29 05:21:07;;;;;;;;;;;;;;;12.46;60.54;100186.91;5107189;28;19931;-52
2022/05/29 05:23:35;;;;;;;;;;;;;;;12.61;59.95;100182.75;5115022;28;19931;-52
2022/05/29 05:26:02;;;;;;;;;;;;;;;12.71;59.65;100189.94;5134757;27;19981;-52
2022/05/29 05:28:30;;;;;;;;;;;;;;;12.79;59.01;100191.88;5135548;27;20398;-52
2022/05/29 05:30:57;;;;;;;;;;;;;;;12.86;59.00;100194.16;5132423;27;19924;-52
2022/05/29 05:33:25;;;;;;;;;;;;;;;12.98;59.13;100191.47;5134819;27;19930;-53
2022/05/29 05:35:52;;;;;;;;;;;;;;;13.00;58.41;100189.97;5134979;27;19924;-52
2022/05/29 05:38:19;;;;;;;;;;;;;;;13.05;58.90;100188.94;5135128;27;19924;-51
2022/05/29 05:40:46;;;;;;;;;;;;;;;12.83;59.38;100192.00;5133196;27;19924;-52
2022/05/29 05:43:13;;;;;;;;;;;;;;;12.94;59.17;100191.31;5134529;27;20002;-52
2022/05/29 05:45:42;;;;;;;;;;;;;;;12.98;59.31;100186.69;5134857;27;19923;-52
2022/05/29 05:48:10;;;;;;;;;;;;;;;13.02;59.81;100180.41;5134549;27;19931;-52
2022/05/29 05:50:38;;;;;;;;;;;;;;;13.13;60.33;100188.06;5133129;27;20405;-52
2022/05/29 05:53:05;;;;;;;;;;;;;;;13.17;60.72;100188.22;5133696;27;19930;-51
2022/05/29 05:55:32;;;;;;;;;;;;;;;13.14;61.17;100178.50;5134142;27;19923;-54
2022/05/29 05:57:59;;;;;;;;;;;;;;;13.23;61.57;100184.06;5134515;27;20359;-55
2022/05/29 06:00:26;;;;;;;;;;;;;;;13.14;60.79;100177.69;5128267;27;19931;-52
2022/05/29 06:02:55;;;;;;;;;;;;;;;13.07;62.01;100183.00;5133917;27;19924;-53
2022/05/29 06:05:22;;;;;;;;;;;;;;;13.07;62.19;100180.22;5134486;27;19935;-52
2022/05/29 06:07:50;;;;;;;;;;;;;;;13.16;62.20;100187.38;5133782;27;19931;-54
2022/05/29 06:10:18;;;;;;;;;;;;;;;13.26;61.42;100188.16;5130789;27;19923;-52
2022/05/29 06:12:45;;;;;;;;;;;;;;;13.34;61.90;100173.31;5116132;27;19931;-51
2022/05/29 06:15:15;;;;;;;;;;;;;;;13.48;61.45;100187.03;5113069;28;19924;-53
2022/05/29 06:17:42;;;;;;;;;;;;;;;13.57;61.40;100185.81;5113413;28;19924;-52
2022/05/29 06:20:12;;;;;;;;;;;;;;;13.61;61.96;100188.75;5121543;27;20271;-52
2022/05/29 06:22:39;;;;;;;;;;;;;;;13.65;61.22;100186.91;5134282;27;20271;-53
2022/05/29 06:25:07;;;;;;;;;;;;;;;13.72;61.08;100181.56;5134141;27;19946;-52
2022/05/29 06:27:36;;;;;;;;;;;;;;;13.83;61.03;100189.53;5133751;27;20386;-52
2022/05/29 06:30:03;;;;;;;;;;;;;;;13.80;61.57;100183.47;5131011;27;20472;-52
2022/05/29 06:32:30;;;;;;;;;;;;;;;13.73;60.88;100193.56;5133802;27;19923;-52
2022/05/29 06:34:58;;;;;;;;;;;;;;;13.71;61.43;100184.69;5133813;27;19931;-54
2022/05/29 06:37:26;;;;;;;;;;;;;;;13.69;61.86;100190.66;5133672;27;20031;-54
2022/05/29 06:39:53;;;;;;;;;;;;;;;13.72;62.07;100189.97;5131996;27;19923;-52
2022/05/29 06:42:20;;;;;;;;;;;;;;;13.89;60.75;100190.97;5134048;27;19931;-52
2022/05/29 06:44:47;;;;;;;;;;;;;;;13.99;60.88;100191.34;5133976;27;20410;-52
2022/05/29 06:47:15;;;;;;;;;;;;;;;14.10;60.70;100183.34;5133803;27;19923;-52
2022/05/29 06:49:42;;;;;;;;;;;;;;;14.24;60.62;100179.41;5130522;27;19934;-52
2022/05/29 06:52:10;;;;;;;;;;;;;;;14.38;59.86;100179.91;5129859;27;19924;-52
2022/05/29 06:54:39;;;;;;;;;;;;;;;14.60;59.90;100187.91;5092738;28;20371;-52
2022/05/29 06:57:07;;;;;;;;;;;;;;;14.60;58.82;100187.91;5092865;28;19924;-52
2022/05/29 07:06:58;;;;;;;;;;;;;;;14.61;58.85;100186.75;5091074;28;20372;-52
2022/05/29 07:07:51;;;;;;;;;;;;;;;15.01;58.40;100179.63;5094273;28;19924;-55
2022/05/29 07:10:22;;;;;;;;;;;;;;;15.11;57.41;100192.34;5089321;28;19924;-52
2022/05/29 07:12:49;;;;;;;;;;;;;;;14.83;57.05;100176.25;5074211;28;19925;-55
2022/05/29 07:15:18;;;;;;;;;;;;;;;14.88;57.37;100178.00;5072320;28;19936;-52
2022/05/29 07:17:45;;;;;;;;;;;;;;;14.92;57.33;100188.16;5072406;28;19925;-52
2022/05/29 07:20:13;;;;;;;;;;;;;;;14.80;57.31;100186.19;5084466;28;19931;-52
2022/05/29 07:22:41;;;;;;;;;;;;;;;14.69;57.84;100178.56;5092076;28;19924;-52
2022/05/29 07:25:09;;;;;;;;;;;;;;;14.84;58.26;100177.88;5090254;28;19924;-54
2022/05/29 07:27:37;;;;;;;;;;;;;;;15.01;57.38;100179.63;5075743;28;20294;-53
2022/05/29 07:30:05;;;;;;;;;;;;;;;15.26;57.39;100174.78;5085561;28;19924;-52
2022/05/29 07:32:32;;;;;;;;;;;;;;;15.60;56.13;100175.41;5096128;28;20292;-53
2022/05/29 07:34:59;;;;;;;;;;;;;;;15.92;54.33;100172.78;5096243;28;19931;-53
2022/05/29 07:37:26;;;;;;;;;;;;;;;16.22;55.03;100165.56;5096252;28;20245;-51
2022/05/29 07:39:54;;;;;;;;;;;;;;;16.75;53.11;100167.31;5094560;28;20368;-52
2022/05/29 07:45:09;;;;;;;;;;;;;;;17.32;52.41;100165.88;5098954;28;20380;-55
2022/05/29 07:47:37;;;;;;;;;;;;;;;17.55;49.38;100168.78;5095925;28;19924;-54
2022/05/29 07:50:05;;;;;;;;;;;;;;;17.76;48.45;100167.63;5081681;28;19925;-53
2022/05/29 07:52:32;;;;;;;;;;;;;;;17.85;48.81;100160.63;5076526;28;19933;-52
2022/05/29 07:54:59;;;;;;;;;;;;;;;18.02;48.62;100164.16;5116797;28;19931;-52
2022/05/29 07:57:26;;;;;;;;;;;;;;;18.63;48.37;100154.81;5099993;28;19931;-52
2022/05/29 07:59:53;;;;;;;;;;;;;;;19.18;46.30;100150.84;5090452;28;19936;-52
2022/05/29 08:02:21;;;;;;;;;;;;;;;19.48;46.30;100146.03;5104309;28;19928;-53
2022/05/29 08:04:48;;;;;;;;;;;;;;;20.04;44.95;100144.31;5091172;28;19924;-52
2022/05/29 08:07:17;;;;;;;;;;;;;;;19.75;43.58;100150.84;5084138;28;20284;-52
2022/05/29 08:09:44;;;;;;;;;;;;;;;18.87;44.15;100149.97;5084601;28;20016;-52
2022/05/29 08:12:11;;;;;;;;;;;;;;;18.58;46.33;100141.03;5095211;28;19931;-52
2022/05/29 08:14:38;;;;;;;;;;;;;;;18.22;46.42;100143.19;5101328;28;19930;-52
2022/05/29 08:17:05;;;;;;;;;;;;;;;17.72;47.67;100159.09;5115917;28;20283;-52
2022/05/29 08:19:34;;;;;;;;;;;;;;;17.25;49.53;100155.28;5102256;28;19926;-52
2022/05/29 08:22:01;;;;;;;;;;;;;;;17.18;49.69;100160.75;5081669;28;19939;-53
2022/05/29 08:32:42;;;;;;;;;;;;;;;16.17;53.22;100162.22;5092374;28;19924;-52
2022/05/29 08:35:10;;;;;;;;;;;;;;;16.00;53.95;100163.34;5094361;28;20352;-51
2022/05/29 08:37:39;;;;;;;;;;;;;;;15.91;54.55;100155.06;5094664;28;19947;-51
2022/05/29 08:40:07;;;;;;;;;;;;;;;15.89;55.08;100151.81;5088862;28;19924;-51
2022/05/29 08:42:34;;;;;;;;;;;;;;;16.08;52.59;100153.94;5094283;28;19924;-52
2022/05/29 08:45:05;;;;;;;;;;;;;;;16.43;53.10;100150.44;5094906;28;19948;-51
2022/05/29 08:47:33;;;;;;;;;;;;;;;16.84;52.16;100151.13;5085913;28;19924;-52
2022/05/29 08:50:00;;;;;;;;;;;;;;;17.83;51.89;100157.34;5074812;28;20044;-51
2022/05/29 08:52:39;;;;;;;;;;;;;;;18.40;48.97;100145.53;5087693;28;19932;-55
2022/05/29 08:55:11;;;;;;;;;;;;;;;20.18;44.56;100140.00;5093470;28;19924;-54
2022/05/29 08:57:54;;;;;;;;;;;;;;;21.94;41.45;100129.91;5093596;28;19924;-53
2022/05/29 09:00:25;;;;;;;;;;;;;;;24.66;39.18;100117.94;5089875;28;19925;-50
2022/05/29 09:03:01;;;;;;;;;;;;;;;26.67;32.12;100115.50;5098431;28;19924;-52
2022/05/29 09:05:33;;;;;;;;;;;;;;;26.71;31.64;100113.38;5090480;28;19943;-52
2022/05/29 09:08:05;;;;;;;;;;;;;;;26.19;31.21;100113.78;5073889;28;19924;-53
2022/05/29 09:10:36;;;;;;;;;;;;;;;25.88;30.78;100108.06;5092343;28;19924;-52
2022/05/29 09:13:05;;;;;;;;;;;;;;;25.26;31.73;100106.38;5086579;28;20365;-53
2022/05/29 09:15:34;;;;;;;;;;;;;;;24.58;33.21;100116.38;5103400;28;19924;-52
2022/05/29 09:18:03;;;;;;;;;;;;;;;23.50;34.96;100110.47;5078562;28;19924;-50
2022/05/29 09:20:32;;;;;;;;;;;;;;;23.27;35.62;100103.22;5094891;28;19931;-53
2022/05/29 09:23:00;;;;;;;;;;;;;;;23.35;35.67;100104.03;5091611;28;19931;-55
2022/05/29 09:25:34;;;;;;;;;;;;;;;23.35;36.12;100104.03;5081126;28;20269;-52
2022/05/29 09:28:02;;;;;;;;;;;;;;;23.81;34.59;100105.06;5102831;28;20388;-50
2022/05/29 09:30:32;;;;;;;;;;;;;;;24.04;34.64;100110.22;5093662;28;19943;-53
2022/05/29 09:33:01;;;;;;;;;;;;;;;23.60;35.47;100103.94;5112974;28;20372;-51
2022/05/29 09:35:31;;;;;;;;;;;;;;;22.44;37.24;100107.34;5098710;28;19924;-50
2022/05/29 09:38:06;;;;;;;;;;;;;;;21.69;37.26;100107.94;5103371;28;19929;-50
2022/05/29 09:40:39;;;;;;;;;;;;;;;20.16;40.43;100111.28;5099723;28;19939;-52
2022/05/29 09:43:19;;;;;;;;;;;;;;;19.61;41.74;100103.41;5097214;28;19928;-50
2022/05/29 09:45:46;;;;;;;;;;;;;;;19.51;42.55;100098.44;5098753;27;19927;-52
2022/05/29 09:51:09;;;;;;;;;;;;;;;19.87;41.25;100102.53;5141671;27;20295;-52
2022/05/29 09:53:42;;;;;;;;;;;;;;;20.00;40.75;100092.56;5132029;27;19934;-50
2022/05/29 09:56:12;;;;;;;;;;;;;;;20.48;40.42;100097.47;5134219;27;19923;-50
2022/05/29 09:58:46;;;;;;;;;;;;;;;20.15;41.25;100087.06;5134062;27;19923;-51
2022/05/29 10:01:13;;;;;;;;;;;;;;;20.24;41.33;100090.38;5124003;27;19931;-50
2022/05/29 10:03:45;;;;;;;;;;;;;;;19.72;42.32;100095.91;5133657;27;19923;-50
2022/05/29 10:06:17;;;;;;;;;;;;;;;19.50;42.86;100102.47;5098816;28;20007;-53
2022/05/29 10:08:45;;;;;;;;;;;;;;;19.12;45.64;100112.84;5097168;27;20378;-54
2022/05/29 10:11:15;;;;;;;;;;;;;;;18.60;45.68;100121.69;5106073;27;19938;-54
2022/05/29 10:13:43;;;;;;;;;;;;;;;18.08;46.50;100113.94;5096621;27;19924;-54
2022/05/29 10:16:10;;;;;;;;;;;;;;;17.41;47.97;100124.25;5092871;28;19931;-54
2022/05/29 10:18:38;;;;;;;;;;;;;;;17.13;48.98;100135.69;5099977;27;20018;-55
2022/05/29 10:21:09;;;;;;;;;;;;;;;16.93;50.18;100129.22;5109646;28;19927;-54
2022/05/29 10:23:37;;;;;;;;;;;;;;;16.66;49.83;100133.75;5111578;28;19923;-51
2022/05/29 10:26:09;;;;;;;;;;;;;;;16.35;50.90;100123.34;5112125;28;19924;-53
2022/05/29 10:28:38;;;;;;;;;;;;;;;16.23;51.01;100127.03;5113380;28;19928;-52
2022/05/29 10:31:06;;;;;;;;;;;;;;;16.08;52.64;100128.66;5106557;27;19928;-52
2022/05/29 10:33:34;;;;;;;;;;;;;;;16.22;53.39;100122.59;5091754;28;19946;-55
2022/05/29 10:36:11;;;;;;;;;;;;;;;16.29;51.97;100119.97;5093091;28;19931;-52
2022/05/29 10:38:38;;;;;;;;;;;;;;;16.31;52.56;100114.81;5092873;28;19924;-54
2022/05/29 10:41:07;;;;;;;;;;;;;;;17.66;50.50;100112.72;5111321;27;19934;-54
2022/05/29 10:43:36;;;;;;;;;;;;;;;18.64;47.75;100104.84;5133000;27;19930;-52
2022/05/29 10:46:06;;;;;;;;;;;;;;;19.01;47.53;100099.41;5133787;27;19931;-51
2022/05/29 10:48:41;;;;;;;;;;;;;;;19.17;45.71;100092.75;5119430;27;19930;-53
2022/05/29 10:51:16;;;;;;;;;;;;;;;19.95;43.61;100089.28;5121197;27;20290;-54
2022/05/29 10:53:53;;;;;;;;;;;;;;;20.11;43.82;100086.22;5118736;27;19931;-53
2022/05/29 10:56:27;;;;;;;;;;;;;;;22.38;40.39;100086.25;5113309;28;20414;-53
2022/05/29 10:59:12;;;;;;;;;;;;;;;24.61;37.81;100080.53;5112603;28;19930;-54
2022/05/29 11:04:46;;;;;;;;;;;;;;;25.22;32.04;100085.66;5118035;28;19924;-55
2022/05/29 11:07:28;;;;;;;;;;;;;;;24.45;34.27;100073.31;5065679;28;19931;-55
2022/05/29 11:10:12;;;;;;;;;;;;;;;24.08;34.63;100071.16;5110277;28;19923;-55
2022/05/29 11:12:47;;;;;;;;;;;;;;;24.05;33.27;100069.16;5095416;28;20284;-54
2022/05/29 11:15:22;;;;;;;;;;;;;;;23.13;35.57;100072.00;5092560;28;20284;-55
2022/05/29 11:18:03;;;;;;;;;;;;;;;24.57;35.62;100054.97;5112993;28;20265;-54
2022/05/29 11:20:55;;;;;;;;;;;;;;;25.77;32.04;100047.50;5112892;28;20288;-55
2022/05/29 11:23:42;;;;;;;;;;;;;;;26.52;30.38;100043.47;5092173;28;19924;-55
2022/05/29 11:26:14;;;;;;;;;;;;;;;26.63;31.50;100039.66;5110129;28;19931;-54
2022/05/29 11:28:58;;;;;;;;;;;;;;;27.99;29.72;100030.34;5112409;28;19931;-52
2022/05/29 11:31:35;;;;;;;;;;;;;;;27.62;28.86;100030.34;5110259;28;19931;-53
2022/05/29 11:34:10;;;;;;;;;;;;;;;28.72;28.36;100031.78;5112936;28;19931;-55
2022/05/29 11:36:45;;;;;;;;;;;;;;;29.98;27.37;100021.63;5106391;28;20053;-55
2022/05/29 11:39:24;;;;;;;;;;;;;;;29.03;26.10;100014.16;5092556;28;19924;-55
2022/05/29 11:41:53;;;;;;;;;;;;;;;28.07;27.11;100008.88;5092234;28;19924;-55
2022/05/29 11:44:22;;;;;;;;;;;;;;;27.38;28.42;100015.31;5084503;28;20115;-55
2022/05/29 11:52:29;;;;;;;;;;;;;;;22.62;39.66;100050.59;5087138;28;19925;-55
2022/05/29 11:55:00;;;;;;;;;;;;;;;21.36;40.74;100056.00;5090332;28;20288;-54
2022/05/29 11:57:32;;;;;;;;;;;;;;;20.40;43.70;100062.63;5103206;28;20326;-52
2022/05/29 12:00:01;;;;;;;;;;;;;;;19.59;45.81;100063.41;5091762;28;19931;-53
2022/05/29 12:02:33;;;;;;;;;;;;;;;19.12;45.95;100067.69;5076970;28;19924;-52
2022/05/29 12:05:09;;;;;;;;;;;;;;;18.41;47.39;100076.66;5092042;28;19927;-54
2022/05/29 12:07:39;;;;;;;;;;;;;;;17.91;50.51;100062.53;5091487;28;19943;-54
2022/05/29 12:10:11;;;;;;;;;;;;;;;17.65;51.73;100064.00;5085080;28;20368;-53
2022/05/29 12:12:41;;;;;;;;;;;;;;;17.62;53.62;100063.94;5090985;28;19924;-54
2022/05/29 12:15:10;;;;;;;;;;;;;;;17.75;50.93;100059.75;5093629;28;20315;-55
2022/05/29 12:17:39;;;;;;;;;;;;;;;17.74;52.40;100062.94;5091962;28;19938;-53
2022/05/29 12:20:10;;;;;;;;;;;;;;;17.45;52.14;100053.97;5078155;28;19935;-54
2022/05/29 12:22:39;;;;;;;;;;;;;;;17.48;51.97;100049.56;5082347;28;20304;-52
2022/05/29 12:25:19;;;;;;;;;;;;;;;17.55;51.75;100056.16;5084006;28;19929;-54
2022/05/29 12:27:47;;;;;;;;;;;;;;;16.87;50.88;100049.09;5085584;28;19939;-52
2022/05/29 12:30:19;;;;;;;;;;;;;;;17.13;51.35;100051.25;5081549;28;19924;-51
2022/05/29 12:32:46;;;;;;;;;;;;;;;17.28;51.39;100052.38;5093561;28;20379;-54
2022/05/29 12:35:15;;;;;;;;;;;;;;;17.22;51.27;100048.25;5097435;28;19925;-51
2022/05/29 12:38:03;;;;;;;;;;;;;;;17.25;50.37;100051.13;5093150;28;19924;-51
2022/05/29 12:40:48;;;;;;;;;;;;;;;17.80;49.53;100036.09;5079294;28;20292;-54
2022/05/29 12:43:43;;;;;;;;;;;;;;;17.94;48.81;100038.41;5084839;28;19924;-51
2022/05/29 12:46:17;;;;;;;;;;;;;;;17.96;47.60;100038.84;5104365;28;19931;-52
2022/05/29 12:48:56;;;;;;;;;;;;;;;18.55;47.20;100028.94;5091802;28;19931;-54
2022/05/29 12:51:35;;;;;;;;;;;;;;;18.56;47.16;100032.56;5083552;28;20399;-54
2022/05/29 12:54:18;;;;;;;;;;;;;;;19.29;45.03;100033.22;5094133;28;19924;-54
2022/05/29 12:57:15;;;;;;;;;;;;;;;19.91;46.67;100032.72;5074645;28;19931;-54
2022/05/29 13:00:02;;;;;;;;;;;;;;;20.40;43.88;100040.00;5015152;28;19925;-52
2022/05/29 13:02:42;;;;;;;;;;;;;;;20.79;42.03;100031.03;5084418;28;19932;-51
2022/05/29 13:05:26;;;;;;;;;;;;;;;20.92;41.51;100031.50;5114869;28;19931;-51
2022/05/29 13:08:04;;;;;;;;;;;;;;;20.67;41.16;100023.66;5087800;28;19943;-53
2022/05/29 13:10:33;;;;;;;;;;;;;;;20.00;43.04;100021.09;5074385;28;19925;-53
2022/05/29 13:13:06;;;;;;;;;;;;;;;20.10;42.55;100019.56;5089072;28;19924;-52
2022/05/29 13:15:35;;;;;;;;;;;;;;;20.37;41.54;100023.00;5080754;28;19940;-51
2022/05/29 13:18:05;;;;;;;;;;;;;;;20.63;41.93;100013.53;5088419;28;19932;-54
2022/05/29 13:20:52;;;;;;;;;;;;;;;20.53;43.41;100015.03;5076468;28;19931;-55
2022/05/29 13:23:32;;;;;;;;;;;;;;;21.29;41.70;99999.28;5086412;28;19931;-54
2022/05/29 13:26:13;;;;;;;;;;;;;;;21.97;40.71;100005.16;5096977;28;19924;-54
2022/05/29 13:28:50;;;;;;;;;;;;;;;21.89;39.50;99990.16;5088314;28;19924;-53